sensor_id;sensor_type;location;lat;lon;timestamp;temperature;humidity
6018;DHT22;3037;51.068;13.780;2024-01-07T00:02:24;1.60;99.90
6018;DHT22;3037;51.068;13.780;2024-01-07T00:04:50;1.50;99.90
6018;DHT22;3037;51.068;13.780;2024-01-07T00:07:15;1.50;99.90
6018;DHT22;3037;51.068;13.780;2024-01-07T00:09:41;1.40;99.90
6018;DHT22;3037;51.068;13.780;2024-01-07T00:12:06;1.30;99.90
6018;DHT22;3037;51.068;13.780;2024-01-07T00:14:32;1.20;99.90
6018;DHT22;3037;51.068;13.780;2024-01-07T00:16:58;1.30;99.90
6018;DHT22;3037;51.068;13.780;2024-01-07T00:19:23;1.20;99.90
6018;DHT22;3037;51.068;13.780;2024-01-07T00:21:49;1.60;99.90
6018;DHT22;3037;51.068;13.780;2024-01-07T00:24:15;1.50;99.90
6018;DHT22;3037;51.068;13.780;2024-01-07T00:26:41;1.20;99.90
6018;DHT22;3037;51.068;13.780;2024-01-07T00:29:06;1.20;99.90
6018;DHT22;3037;51.068;13.780;2024-01-07T00:31:32;1.10;99.90
6018;DHT22;3037;51.068;13.780;2024-01-07T00:33:57;1.10;99.90
6018;DHT22;3037;51.068;13.780;2024-01-07T00:36:23;1.20;99.90
6018;DHT22;3037;51.068;13.780;2024-01-07T00:38:48;1.40;99.80
6018;DHT22;3037;51.068;13.780;2024-01-07T00:41:14;1.40;99.90
6018;DHT22;3037;51.068;13.780;2024-01-07T00:43:39;0.90;99.90
6018;DHT22;3037;51.068;13.780;2024-01-07T00:46:06;1.00;99.90
6018;DHT22;3037;51.068;13.780;2024-01-07T00:48:31;1.00;99.90
6018;DHT22;3037;51.068;13.780;2024-01-07T00:50:57;1.10;99.90
6018;DHT22;3037;51.068;13.780;2024-01-07T00:53:22;1.00;99.90
6018;DHT22;3037;51.068;13.780;2024-01-07T00:55:48;1.00;99.90
6018;DHT22;3037;51.068;13.780;2024-01-07T00:58:13;1.20;99.90
6018;DHT22;3037;51.068;13.780;2024-01-07T01:00:39;1.30;99.90
6018;DHT22;3037;51.068;13.780;2024-01-07T01:03:04;1.40;99.90
6018;DHT22;3037;51.068;13.780;2024-01-07T01:05:30;1.40;99.90
6018;DHT22;3037;51.068;13.780;2024-01-07T01:07:55;1.30;99.90
6018;DHT22;3037;51.068;13.780;2024-01-07T01:10:21;1.50;99.90
6018;DHT22;3037;51.068;13.780;2024-01-07T01:12:47;1.60;99.90
6018;DHT22;3037;51.068;13.780;2024-01-07T01:15:12;1.50;99.90
6018;DHT22;3037;51.068;13.780;2024-01-07T01:17:38;1.50;99.40
6018;DHT22;3037;51.068;13.780;2024-01-07T01:20:04;1.50;95.60
6018;DHT22;3037;51.068;13.780;2024-01-07T01:22:29;1.40;93.50
6018;DHT22;3037;51.068;13.780;2024-01-07T01:24:55;1.30;99.90
6018;DHT22;3037;51.068;13.780;2024-01-07T01:27:21;1.00;97.50
6018;DHT22;3037;51.068;13.780;2024-01-07T01:29:47;1.20;99.70
6018;DHT22;3037;51.068;13.780;2024-01-07T01:32:12;1.30;99.80
6018;DHT22;3037;51.068;13.780;2024-01-07T01:34:40;1.30;96.80
6018;DHT22;3037;51.068;13.780;2024-01-07T01:37:05;1.20;98.00
6018;DHT22;3037;51.068;13.780;2024-01-07T01:39:31;0.90;99.50
6018;DHT22;3037;51.068;13.780;2024-01-07T01:41:56;1.10;99.60
6018;DHT22;3037;51.068;13.780;2024-01-07T01:44:23;1.10;99.90
6018;DHT22;3037;51.068;13.780;2024-01-07T01:46:49;1.30;99.90
6018;DHT22;3037;51.068;13.780;2024-01-07T01:49:15;1.10;99.90
6018;DHT22;3037;51.068;13.780;2024-01-07T01:51:41;1.20;99.90
6018;DHT22;3037;51.068;13.780;2024-01-07T01:54:07;1.20;99.90
6018;DHT22;3037;51.068;13.780;2024-01-07T01:56:33;1.10;99.90
6018;DHT22;3037;51.068;13.780;2024-01-07T01:58:59;1.30;99.90
6018;DHT22;3037;51.068;13.780;2024-01-07T02:01:25;1.40;98.30
6018;DHT22;3037;51.068;13.780;2024-01-07T02:03:50;1.20;97.90
6018;DHT22;3037;51.068;13.780;2024-01-07T02:06:17;0.90;99.90
6018;DHT22;3037;51.068;13.780;2024-01-07T02:08:43;1.00;99.90
6018;DHT22;3037;51.068;13.780;2024-01-07T02:11:20;1.00;99.90
6018;DHT22;3037;51.068;13.780;2024-01-07T02:13:45;1.30;99.90
6018;DHT22;3037;51.068;13.780;2024-01-07T02:16:11;1.30;97.10
6018;DHT22;3037;51.068;13.780;2024-01-07T02:18:38;1.10;95.80
6018;DHT22;3037;51.068;13.780;2024-01-07T02:21:07;0.90;96.90
6018;DHT22;3037;51.068;13.780;2024-01-07T02:23:32;0.60;99.40
6018;DHT22;3037;51.068;13.780;2024-01-07T02:25:58;0.70;99.90
6018;DHT22;3037;51.068;13.780;2024-01-07T02:28:23;0.80;97.20
6018;DHT22;3037;51.068;13.780;2024-01-07T02:30:49;0.70;99.90
6018;DHT22;3037;51.068;13.780;2024-01-07T02:33:14;0.90;97.90
6018;DHT22;3037;51.068;13.780;2024-01-07T02:35:39;1.10;94.90
6018;DHT22;3037;51.068;13.780;2024-01-07T02:38:05;1.20;92.50
6018;DHT22;3037;51.068;13.780;2024-01-07T02:40:30;0.80;91.60
6018;DHT22;3037;51.068;13.780;2024-01-07T02:42:56;0.70;90.30
6018;DHT22;3037;51.068;13.780;2024-01-07T02:45:22;0.70;92.50
6018;DHT22;3037;51.068;13.780;2024-01-07T02:47:48;0.50;93.50
6018;DHT22;3037;51.068;13.780;2024-01-07T02:50:13;0.50;94.70
6018;DHT22;3037;51.068;13.780;2024-01-07T02:52:39;0.70;95.10
6018;DHT22;3037;51.068;13.780;2024-01-07T02:55:05;0.60;94.00
6018;DHT22;3037;51.068;13.780;2024-01-07T02:57:30;0.80;95.70
6018;DHT22;3037;51.068;13.780;2024-01-07T02:59:56;0.60;92.30
6018;DHT22;3037;51.068;13.780;2024-01-07T03:02:21;0.50;94.00
6018;DHT22;3037;51.068;13.780;2024-01-07T03:04:47;0.50;95.70
6018;DHT22;3037;51.068;13.780;2024-01-07T03:07:12;0.60;91.20
6018;DHT22;3037;51.068;13.780;2024-01-07T03:09:38;0.90;83.80
6018;DHT22;3037;51.068;13.780;2024-01-07T03:12:04;0.70;83.40
6018;DHT22;3037;51.068;13.780;2024-01-07T03:14:29;0.60;81.70
6018;DHT22;3037;51.068;13.780;2024-01-07T03:16:55;0.80;77.50
6018;DHT22;3037;51.068;13.780;2024-01-07T03:19:20;0.80;75.60
6018;DHT22;3037;51.068;13.780;2024-01-07T03:21:47;0.90;77.00
6018;DHT22;3037;51.068;13.780;2024-01-07T03:24:13;0.80;75.30
6018;DHT22;3037;51.068;13.780;2024-01-07T03:26:38;0.60;79.50
6018;DHT22;3037;51.068;13.780;2024-01-07T03:29:04;0.70;81.40
6018;DHT22;3037;51.068;13.780;2024-01-07T03:31:29;0.60;82.20
6018;DHT22;3037;51.068;13.780;2024-01-07T03:33:55;0.70;81.20
6018;DHT22;3037;51.068;13.780;2024-01-07T03:36:20;0.80;82.00
6018;DHT22;3037;51.068;13.780;2024-01-07T03:38:46;0.90;79.50
6018;DHT22;3037;51.068;13.780;2024-01-07T03:41:18;1.00;77.20
6018;DHT22;3037;51.068;13.780;2024-01-07T03:43:45;0.60;76.20
6018;DHT22;3037;51.068;13.780;2024-01-07T03:46:11;0.70;80.10
6018;DHT22;3037;51.068;13.780;2024-01-07T03:48:37;0.70;82.10
6018;DHT22;3037;51.068;13.780;2024-01-07T03:51:02;0.80;79.30
6018;DHT22;3037;51.068;13.780;2024-01-07T03:53:28;0.80;77.70
6018;DHT22;3037;51.068;13.780;2024-01-07T03:55:53;0.90;77.30
6018;DHT22;3037;51.068;13.780;2024-01-07T03:58:18;0.80;75.80
6018;DHT22;3037;51.068;13.780;2024-01-07T04:00:44;1.00;76.50
6018;DHT22;3037;51.068;13.780;2024-01-07T04:03:09;0.80;77.70
6018;DHT22;3037;51.068;13.780;2024-01-07T04:05:35;0.80;73.40
6018;DHT22;3037;51.068;13.780;2024-01-07T04:08:02;0.60;76.60
6018;DHT22;3037;51.068;13.780;2024-01-07T04:10:28;0.70;79.60
6018;DHT22;3037;51.068;13.780;2024-01-07T04:12:53;1.00;77.60
6018;DHT22;3037;51.068;13.780;2024-01-07T04:15:19;0.90;75.80
6018;DHT22;3037;51.068;13.780;2024-01-07T04:17:45;0.80;74.10
6018;DHT22;3037;51.068;13.780;2024-01-07T04:20:13;0.80;72.30
6018;DHT22;3037;51.068;13.780;2024-01-07T04:22:38;0.70;69.80
6018;DHT22;3037;51.068;13.780;2024-01-07T04:25:04;0.30;75.30
6018;DHT22;3037;51.068;13.780;2024-01-07T04:27:34;0.50;73.70
6018;DHT22;3037;51.068;13.780;2024-01-07T04:30:00;0.50;79.20
6018;DHT22;3037;51.068;13.780;2024-01-07T04:32:25;0.70;76.00
6018;DHT22;3037;51.068;13.780;2024-01-07T04:34:50;0.90;74.30
6018;DHT22;3037;51.068;13.780;2024-01-07T04:37:16;0.70;76.60
6018;DHT22;3037;51.068;13.780;2024-01-07T04:39:41;0.90;71.50
6018;DHT22;3037;51.068;13.780;2024-01-07T04:42:07;0.70;74.90
6018;DHT22;3037;51.068;13.780;2024-01-07T04:44:32;0.50;70.90
6018;DHT22;3037;51.068;13.780;2024-01-07T04:46:58;0.80;72.90
6018;DHT22;3037;51.068;13.780;2024-01-07T04:49:23;0.90;69.00
6018;DHT22;3037;51.068;13.780;2024-01-07T04:51:49;0.60;69.80
6018;DHT22;3037;51.068;13.780;2024-01-07T04:54:14;0.50;71.50
6018;DHT22;3037;51.068;13.780;2024-01-07T04:56:40;0.60;73.80
6018;DHT22;3037;51.068;13.780;2024-01-07T04:59:05;0.60;71.70
6018;DHT22;3037;51.068;13.780;2024-01-07T05:01:32;0.70;69.60
6018;DHT22;3037;51.068;13.780;2024-01-07T05:03:58;0.80;71.10
6018;DHT22;3037;51.068;13.780;2024-01-07T05:06:24;0.80;71.40
6018;DHT22;3037;51.068;13.780;2024-01-07T05:08:49;0.70;69.60
6018;DHT22;3037;51.068;13.780;2024-01-07T05:11:15;0.70;68.80
6018;DHT22;3037;51.068;13.780;2024-01-07T05:13:42;0.70;71.20
6018;DHT22;3037;51.068;13.780;2024-01-07T05:16:08;0.80;69.40
6018;DHT22;3037;51.068;13.780;2024-01-07T05:18:33;0.70;67.70
6018;DHT22;3037;51.068;13.780;2024-01-07T05:20:58;0.70;67.00
6018;DHT22;3037;51.068;13.780;2024-01-07T05:23:24;0.60;67.30
6018;DHT22;3037;51.068;13.780;2024-01-07T05:25:49;0.30;66.50
6018;DHT22;3037;51.068;13.780;2024-01-07T05:28:15;0.50;66.50
6018;DHT22;3037;51.068;13.780;2024-01-07T05:30:44;0.50;66.50
6018;DHT22;3037;51.068;13.780;2024-01-07T05:33:10;0.60;71.90
6018;DHT22;3037;51.068;13.780;2024-01-07T05:35:35;0.90;67.20
6018;DHT22;3037;51.068;13.780;2024-01-07T05:38:01;0.70;61.40
6018;DHT22;3037;51.068;13.780;2024-01-07T05:40:26;0.20;60.80
6018;DHT22;3037;51.068;13.780;2024-01-07T05:42:52;0.40;64.80
6018;DHT22;3037;51.068;13.780;2024-01-07T05:45:17;0.30;64.30
6018;DHT22;3037;51.068;13.780;2024-01-07T05:47:43;0.40;63.20
6018;DHT22;3037;51.068;13.780;2024-01-07T05:50:08;0.40;62.50
6018;DHT22;3037;51.068;13.780;2024-01-07T05:52:34;0.10;61.80
6018;DHT22;3037;51.068;13.780;2024-01-07T05:54:59;0.30;61.50
6018;DHT22;3037;51.068;13.780;2024-01-07T05:57:25;0.40;62.50
6018;DHT22;3037;51.068;13.780;2024-01-07T05:59:51;0.40;61.60
6018;DHT22;3037;51.068;13.780;2024-01-07T06:02:17;0.30;58.80
6018;DHT22;3037;51.068;13.780;2024-01-07T06:04:43;0.30;62.20
6018;DHT22;3037;51.068;13.780;2024-01-07T06:07:08;0.20;62.20
6018;DHT22;3037;51.068;13.780;2024-01-07T06:09:34;0.20;66.00
6018;DHT22;3037;51.068;13.780;2024-01-07T06:12:00;0.30;62.90
6018;DHT22;3037;51.068;13.780;2024-01-07T06:14:25;0.30;67.90
6018;DHT22;3037;51.068;13.780;2024-01-07T06:16:51;0.60;64.10
6018;DHT22;3037;51.068;13.780;2024-01-07T06:19:17;0.70;62.70
6018;DHT22;3037;51.068;13.780;2024-01-07T06:21:43;0.60;56.10
6018;DHT22;3037;51.068;13.780;2024-01-07T06:24:09;0.60;60.00
6018;DHT22;3037;51.068;13.780;2024-01-07T06:26:35;0.20;58.70
6018;DHT22;3037;51.068;13.780;2024-01-07T06:29:00;0.40;60.80
6018;DHT22;3037;51.068;13.780;2024-01-07T06:31:26;0.40;58.70
6018;DHT22;3037;51.068;13.780;2024-01-07T06:33:52;0.30;55.20
6018;DHT22;3037;51.068;13.780;2024-01-07T06:36:17;0.30;57.40
6018;DHT22;3037;51.068;13.780;2024-01-07T06:38:43;0.20;55.40
6018;DHT22;3037;51.068;13.780;2024-01-07T06:41:10;0.20;56.30
6018;DHT22;3037;51.068;13.780;2024-01-07T06:43:35;0.00;57.10
6018;DHT22;3037;51.068;13.780;2024-01-07T06:46:01;-0.10;56.00
6018;DHT22;3037;51.068;13.780;2024-01-07T06:48:26;-0.10;55.50
6018;DHT22;3037;51.068;13.780;2024-01-07T06:50:52;-0.30;53.90
6018;DHT22;3037;51.068;13.780;2024-01-07T06:53:17;-0.10;52.80
6018;DHT22;3037;51.068;13.780;2024-01-07T06:55:43;0.00;54.40
6018;DHT22;3037;51.068;13.780;2024-01-07T06:58:08;-0.20;51.80
6018;DHT22;3037;51.068;13.780;2024-01-07T07:00:34;-0.30;53.90
6018;DHT22;3037;51.068;13.780;2024-01-07T07:02:59;-0.20;53.70
6018;DHT22;3037;51.068;13.780;2024-01-07T07:05:25;0.00;56.50
6018;DHT22;3037;51.068;13.780;2024-01-07T07:07:50;0.00;53.70
6018;DHT22;3037;51.068;13.780;2024-01-07T07:10:16;0.10;54.20
6018;DHT22;3037;51.068;13.780;2024-01-07T07:12:41;0.30;54.20
6018;DHT22;3037;51.068;13.780;2024-01-07T07:15:07;0.20;53.50
6018;DHT22;3037;51.068;13.780;2024-01-07T07:17:36;0.10;50.50
6018;DHT22;3037;51.068;13.780;2024-01-07T07:20:01;0.20;51.90
6018;DHT22;3037;51.068;13.780;2024-01-07T07:22:27;0.20;52.40
6018;DHT22;3037;51.068;13.780;2024-01-07T07:24:52;0.30;52.60
6018;DHT22;3037;51.068;13.780;2024-01-07T07:27:18;0.20;46.70
6018;DHT22;3037;51.068;13.780;2024-01-07T07:29:43;0.30;51.20
6018;DHT22;3037;51.068;13.780;2024-01-07T07:32:09;0.20;50.00
6018;DHT22;3037;51.068;13.780;2024-01-07T07:34:34;0.00;51.60
6018;DHT22;3037;51.068;13.780;2024-01-07T07:37:00;0.20;52.10
6018;DHT22;3037;51.068;13.780;2024-01-07T07:39:25;-0.10;50.40
6018;DHT22;3037;51.068;13.780;2024-01-07T07:41:51;0.10;50.60
6018;DHT22;3037;51.068;13.780;2024-01-07T07:44:16;0.20;49.10
6018;DHT22;3037;51.068;13.780;2024-01-07T07:46:41;0.10;45.70
6018;DHT22;3037;51.068;13.780;2024-01-07T07:49:07;0.20;47.40
6018;DHT22;3037;51.068;13.780;2024-01-07T07:51:33;0.00;46.50
6018;DHT22;3037;51.068;13.780;2024-01-07T07:53:58;0.10;45.90
6018;DHT22;3037;51.068;13.780;2024-01-07T07:56:24;0.20;46.00
6018;DHT22;3037;51.068;13.780;2024-01-07T07:58:49;0.30;44.00
6018;DHT22;3037;51.068;13.780;2024-01-07T08:01:14;0.30;42.90
6018;DHT22;3037;51.068;13.780;2024-01-07T08:03:40;0.30;44.20
6018;DHT22;3037;51.068;13.780;2024-01-07T08:06:06;0.50;44.30
6018;DHT22;3037;51.068;13.780;2024-01-07T08:08:31;0.50;42.30
6018;DHT22;3037;51.068;13.780;2024-01-07T08:10:57;0.40;38.50
6018;DHT22;3037;51.068;13.780;2024-01-07T08:13:23;0.30;40.60
6018;DHT22;3037;51.068;13.780;2024-01-07T08:15:48;0.40;39.90
6018;DHT22;3037;51.068;13.780;2024-01-07T08:18:14;0.30;36.50
6018;DHT22;3037;51.068;13.780;2024-01-07T08:20:39;0.10;34.30
6018;DHT22;3037;51.068;13.780;2024-01-07T08:23:05;0.10;35.40
6018;DHT22;3037;51.068;13.780;2024-01-07T08:25:31;0.20;35.60
6018;DHT22;3037;51.068;13.780;2024-01-07T08:27:57;0.20;35.30
6018;DHT22;3037;51.068;13.780;2024-01-07T08:30:23;0.00;33.00
6018;DHT22;3037;51.068;13.780;2024-01-07T08:32:49;0.00;34.80
6018;DHT22;3037;51.068;13.780;2024-01-07T08:35:14;0.20;29.60
6018;DHT22;3037;51.068;13.780;2024-01-07T08:37:40;0.00;31.40
6018;DHT22;3037;51.068;13.780;2024-01-07T08:40:06;0.20;29.20
6018;DHT22;3037;51.068;13.780;2024-01-07T08:42:35;0.20;27.90
6018;DHT22;3037;51.068;13.780;2024-01-07T08:45:01;0.20;27.90
6018;DHT22;3037;51.068;13.780;2024-01-07T08:47:26;0.10;29.00
6018;DHT22;3037;51.068;13.780;2024-01-07T08:49:52;0.10;27.80
6018;DHT22;3037;51.068;13.780;2024-01-07T08:52:19;0.30;28.00
6018;DHT22;3037;51.068;13.780;2024-01-07T08:54:44;-0.10;27.00
6018;DHT22;3037;51.068;13.780;2024-01-07T08:57:10;0.20;28.60
6018;DHT22;3037;51.068;13.780;2024-01-07T08:59:36;0.20;25.80
6018;DHT22;3037;51.068;13.780;2024-01-07T09:02:01;0.40;26.30
6018;DHT22;3037;51.068;13.780;2024-01-07T09:04:27;0.50;25.00
6018;DHT22;3037;51.068;13.780;2024-01-07T09:06:53;0.60;24.80
6018;DHT22;3037;51.068;13.780;2024-01-07T09:09:18;0.70;23.70
6018;DHT22;3037;51.068;13.780;2024-01-07T09:11:44;0.80;22.60
6018;DHT22;3037;51.068;13.780;2024-01-07T09:14:11;0.70;21.30
6018;DHT22;3037;51.068;13.780;2024-01-07T09:16:36;0.60;20.70
6018;DHT22;3037;51.068;13.780;2024-01-07T09:19:02;0.40;22.90
6018;DHT22;3037;51.068;13.780;2024-01-07T09:21:27;0.70;20.10
6018;DHT22;3037;51.068;13.780;2024-01-07T09:23:53;0.40;18.30
6018;DHT22;3037;51.068;13.780;2024-01-07T09:26:18;0.10;22.30
6018;DHT22;3037;51.068;13.780;2024-01-07T09:28:44;0.80;22.30
6018;DHT22;3037;51.068;13.780;2024-01-07T09:31:09;0.50;21.80
6018;DHT22;3037;51.068;13.780;2024-01-07T09:33:35;0.40;19.60
6018;DHT22;3037;51.068;13.780;2024-01-07T09:36:00;0.60;19.90
6018;DHT22;3037;51.068;13.780;2024-01-07T09:38:26;0.70;17.70
6018;DHT22;3037;51.068;13.780;2024-01-07T09:40:52;0.50;17.00
6018;DHT22;3037;51.068;13.780;2024-01-07T09:43:19;0.30;16.40
6018;DHT22;3037;51.068;13.780;2024-01-07T09:45:46;0.40;17.80
6018;DHT22;3037;51.068;13.780;2024-01-07T09:48:15;0.30;16.00
6018;DHT22;3037;51.068;13.780;2024-01-07T09:50:42;0.50;15.80
6018;DHT22;3037;51.068;13.780;2024-01-07T09:53:13;0.30;13.00
6018;DHT22;3037;51.068;13.780;2024-01-07T09:55:51;0.60;60.30
6018;DHT22;3037;51.068;13.780;2024-01-07T09:58:17;1.50;24.80
6018;DHT22;3037;51.068;13.780;2024-01-07T10:00:43;0.70;15.10
6018;DHT22;3037;51.068;13.780;2024-01-07T10:03:09;0.50;17.90
6018;DHT22;3037;51.068;13.780;2024-01-07T10:05:35;0.30;16.50
6018;DHT22;3037;51.068;13.780;2024-01-07T10:08:00;0.60;17.30
6018;DHT22;3037;51.068;13.780;2024-01-07T10:10:28;0.80;13.20
6018;DHT22;3037;51.068;13.780;2024-01-07T10:12:54;0.70;13.70
6018;DHT22;3037;51.068;13.780;2024-01-07T10:15:22;0.70;12.80
6018;DHT22;3037;51.068;13.780;2024-01-07T10:17:47;0.40;11.40
6018;DHT22;3037;51.068;13.780;2024-01-07T10:20:13;0.00;13.60
6018;DHT22;3037;51.068;13.780;2024-01-07T10:22:39;0.20;14.80
6018;DHT22;3037;51.068;13.780;2024-01-07T10:25:05;0.10;13.70
6018;DHT22;3037;51.068;13.780;2024-01-07T10:27:34;0.30;12.60
6018;DHT22;3037;51.068;13.780;2024-01-07T10:30:02;0.50;11.30
6018;DHT22;3037;51.068;13.780;2024-01-07T10:32:28;0.40;10.00
6018;DHT22;3037;51.068;13.780;2024-01-07T10:35:01;0.30;9.90
6018;DHT22;3037;51.068;13.780;2024-01-07T10:37:28;0.10;10.40
6018;DHT22;3037;51.068;13.780;2024-01-07T10:39:56;-0.10;10.30
6018;DHT22;3037;51.068;13.780;2024-01-07T10:42:23;0.00;11.10
6018;DHT22;3037;51.068;13.780;2024-01-07T10:44:48;0.20;10.50
6018;DHT22;3037;51.068;13.780;2024-01-07T10:47:15;0.40;9.70
6018;DHT22;3037;51.068;13.780;2024-01-07T10:49:44;0.40;7.70
6018;DHT22;3037;51.068;13.780;2024-01-07T10:52:13;0.50;5.90
6018;DHT22;3037;51.068;13.780;2024-01-07T10:54:42;0.50;5.70
6018;DHT22;3037;51.068;13.780;2024-01-07T10:59:47;0.60;3.70
6018;DHT22;3037;51.068;13.780;2024-01-07T11:02:15;0.60;3.30
6018;DHT22;3037;51.068;13.780;2024-01-07T11:05:03;0.40;1.00
6018;DHT22;3037;51.068;13.780;2024-01-07T11:07:42;0.10;2.30
6018;DHT22;3037;51.068;13.780;2024-01-07T11:10:19;-0.10;1.40
6018;DHT22;3037;51.068;13.780;2024-01-07T11:12:53;0.20;2.10
6018;DHT22;3037;51.068;13.780;2024-01-07T11:18:21;0.10;1.30
6018;DHT22;3037;51.068;13.780;2024-01-07T11:20:48;-0.20;1.00
6018;DHT22;3037;51.068;13.780;2024-01-07T11:23:28;-0.20;1.00
6018;DHT22;3037;51.068;13.780;2024-01-07T11:25:59;0.00;1.00
6018;DHT22;3037;51.068;13.780;2024-01-07T11:31:09;0.30;1.00
6018;DHT22;3037;51.068;13.780;2024-01-07T11:33:36;0.50;1.00
6018;DHT22;3037;51.068;13.780;2024-01-07T11:36:03;0.80;1.00
6018;DHT22;3037;51.068;13.780;2024-01-07T11:38:29;0.40;1.00
6018;DHT22;3037;51.068;13.780;2024-01-07T11:40:56;0.40;1.00
6018;DHT22;3037;51.068;13.780;2024-01-07T11:43:22;0.20;1.00
6018;DHT22;3037;51.068;13.780;2024-01-07T11:45:51;0.40;1.00
6018;DHT22;3037;51.068;13.780;2024-01-07T11:48:18;0.80;1.00
6018;DHT22;3037;51.068;13.780;2024-01-07T11:50:43;1.40;1.00
6018;DHT22;3037;51.068;13.780;2024-01-07T11:53:11;1.40;1.00
6018;DHT22;3037;51.068;13.780;2024-01-07T11:55:37;1.10;1.00
6018;DHT22;3037;51.068;13.780;2024-01-07T11:58:02;1.20;1.00
6018;DHT22;3037;51.068;13.780;2024-01-07T12:00:31;1.00;1.00
6018;DHT22;3037;51.068;13.780;2024-01-07T12:02:58;0.90;1.00
6018;DHT22;3037;51.068;13.780;2024-01-07T12:05:24;0.80;1.00
6018;DHT22;3037;51.068;13.780;2024-01-07T12:07:49;1.00;1.00
6018;DHT22;3037;51.068;13.780;2024-01-07T12:10:15;1.20;1.00
6018;DHT22;3037;51.068;13.780;2024-01-07T12:12:42;0.90;1.00
6018;DHT22;3037;51.068;13.780;2024-01-07T12:15:08;0.60;1.00
6018;DHT22;3037;51.068;13.780;2024-01-07T12:17:34;0.40;1.00
6018;DHT22;3037;51.068;13.780;2024-01-07T12:20:00;0.10;1.00
6018;DHT22;3037;51.068;13.780;2024-01-07T12:22:30;0.40;1.00
6018;DHT22;3037;51.068;13.780;2024-01-07T12:25:08;0.70;1.00
6018;DHT22;3037;51.068;13.780;2024-01-07T12:27:34;0.80;1.00
6018;DHT22;3037;51.068;13.780;2024-01-07T12:30:01;1.30;1.00
6018;DHT22;3037;51.068;13.780;2024-01-07T12:32:32;2.10;1.00
6018;DHT22;3037;51.068;13.780;2024-01-07T12:34:58;0.70;1.00
6018;DHT22;3037;51.068;13.780;2024-01-07T12:37:27;0.50;1.00
6018;DHT22;3037;51.068;13.780;2024-01-07T12:39:53;0.50;1.00
6018;DHT22;3037;51.068;13.780;2024-01-07T12:42:19;0.30;1.00
6018;DHT22;3037;51.068;13.780;2024-01-07T12:44:45;0.50;1.00
6018;DHT22;3037;51.068;13.780;2024-01-07T12:47:11;0.10;1.00
6018;DHT22;3037;51.068;13.780;2024-01-07T12:49:36;0.20;1.00
6018;DHT22;3037;51.068;13.780;2024-01-07T12:52:02;0.30;1.00
6018;DHT22;3037;51.068;13.780;2024-01-07T12:54:27;0.20;1.00
6018;DHT22;3037;51.068;13.780;2024-01-07T12:56:53;-0.10;1.00
6018;DHT22;3037;51.068;13.780;2024-01-07T12:59:18;0.10;1.00
6018;DHT22;3037;51.068;13.780;2024-01-07T13:01:44;0.10;1.00
6018;DHT22;3037;51.068;13.780;2024-01-07T13:04:09;-0.10;1.00
6018;DHT22;3037;51.068;13.780;2024-01-07T13:06:35;0.00;1.00
6018;DHT22;3037;51.068;13.780;2024-01-07T13:09:01;0.10;1.00
6018;DHT22;3037;51.068;13.780;2024-01-07T13:11:29;0.30;1.00
6018;DHT22;3037;51.068;13.780;2024-01-07T13:13:55;0.00;1.00
6018;DHT22;3037;51.068;13.780;2024-01-07T13:16:24;0.20;1.00
6018;DHT22;3037;51.068;13.780;2024-01-07T13:18:50;-0.10;1.00
6018;DHT22;3037;51.068;13.780;2024-01-07T13:21:16;0.00;1.00
6018;DHT22;3037;51.068;13.780;2024-01-07T13:23:43;-0.30;1.00
6018;DHT22;3037;51.068;13.780;2024-01-07T13:26:12;-0.20;1.00
6018;DHT22;3037;51.068;13.780;2024-01-07T13:28:37;-0.20;1.00
6018;DHT22;3037;51.068;13.780;2024-01-07T13:31:03;0.00;1.00
6018;DHT22;3037;51.068;13.780;2024-01-07T13:33:29;-0.10;1.00
6018;DHT22;3037;51.068;13.780;2024-01-07T13:35:55;-0.10;1.00
6018;DHT22;3037;51.068;13.780;2024-01-07T13:38:20;0.10;1.00
6018;DHT22;3037;51.068;13.780;2024-01-07T13:40:46;0.40;1.00
6018;DHT22;3037;51.068;13.780;2024-01-07T13:43:12;0.40;1.00
6018;DHT22;3037;51.068;13.780;2024-01-07T13:45:37;1.30;1.00
6018;DHT22;3037;51.068;13.780;2024-01-07T13:48:03;1.40;1.00
6018;DHT22;3037;51.068;13.780;2024-01-07T13:50:29;0.80;1.00
6018;DHT22;3037;51.068;13.780;2024-01-07T13:52:54;0.90;1.00
6018;DHT22;3037;51.068;13.780;2024-01-07T13:55:20;0.70;1.00
6018;DHT22;3037;51.068;13.780;2024-01-07T13:57:45;0.40;1.00
6018;DHT22;3037;51.068;13.780;2024-01-07T14:00:11;0.70;1.00
6018;DHT22;3037;51.068;13.780;2024-01-07T14:02:43;0.60;1.00
6018;DHT22;3037;51.068;13.780;2024-01-07T14:05:11;0.90;1.00
6018;DHT22;3037;51.068;13.780;2024-01-07T14:07:37;0.60;1.00
6018;DHT22;3037;51.068;13.780;2024-01-07T14:10:04;0.60;1.00
6018;DHT22;3037;51.068;13.780;2024-01-07T14:12:30;0.60;1.00
6018;DHT22;3037;51.068;13.780;2024-01-07T14:14:56;0.60;1.00
6018;DHT22;3037;51.068;13.780;2024-01-07T14:17:21;0.50;1.00
6018;DHT22;3037;51.068;13.780;2024-01-07T14:19:47;0.20;1.00
6018;DHT22;3037;51.068;13.780;2024-01-07T14:22:13;0.20;1.00
6018;DHT22;3037;51.068;13.780;2024-01-07T14:24:39;0.00;1.00
6018;DHT22;3037;51.068;13.780;2024-01-07T14:27:04;0.10;1.00
6018;DHT22;3037;51.068;13.780;2024-01-07T14:29:30;0.10;1.00
6018;DHT22;3037;51.068;13.780;2024-01-07T14:31:55;-0.10;1.00
6018;DHT22;3037;51.068;13.780;2024-01-07T14:34:21;0.00;1.00
6018;DHT22;3037;51.068;13.780;2024-01-07T14:36:46;0.00;1.00
6018;DHT22;3037;51.068;13.780;2024-01-07T14:39:12;-0.20;1.00
6018;DHT22;3037;51.068;13.780;2024-01-07T14:41:39;-0.20;1.00
6018;DHT22;3037;51.068;13.780;2024-01-07T14:44:05;-0.20;1.00
6018;DHT22;3037;51.068;13.780;2024-01-07T14:46:30;-0.20;1.00
6018;DHT22;3037;51.068;13.780;2024-01-07T14:48:56;-0.10;1.00
6018;DHT22;3037;51.068;13.780;2024-01-07T14:51:21;0.00;1.00
6018;DHT22;3037;51.068;13.780;2024-01-07T14:53:47;0.00;1.00
6018;DHT22;3037;51.068;13.780;2024-01-07T14:56:12;0.20;1.00
6018;DHT22;3037;51.068;13.780;2024-01-07T14:58:38;0.20;1.00
6018;DHT22;3037;51.068;13.780;2024-01-07T15:01:04;0.20;1.00
6018;DHT22;3037;51.068;13.780;2024-01-07T15:03:29;0.00;1.00
6018;DHT22;3037;51.068;13.780;2024-01-07T15:05:56;0.20;1.00
6018;DHT22;3037;51.068;13.780;2024-01-07T15:08:21;0.20;1.00
6018;DHT22;3037;51.068;13.780;2024-01-07T15:10:47;0.10;1.00
6018;DHT22;3037;51.068;13.780;2024-01-07T15:13:12;-0.10;1.00
6018;DHT22;3037;51.068;13.780;2024-01-07T15:15:38;-0.10;1.00
6018;DHT22;3037;51.068;13.780;2024-01-07T15:18:04;-0.10;1.00
6018;DHT22;3037;51.068;13.780;2024-01-07T15:20:29;-0.30;1.00
6018;DHT22;3037;51.068;13.780;2024-01-07T15:22:55;-0.20;1.00
6018;DHT22;3037;51.068;13.780;2024-01-07T15:25:20;-0.10;1.00
6018;DHT22;3037;51.068;13.780;2024-01-07T15:27:46;0.00;1.00
6018;DHT22;3037;51.068;13.780;2024-01-07T15:30:12;0.00;1.00
6018;DHT22;3037;51.068;13.780;2024-01-07T15:32:37;-0.50;1.00
6018;DHT22;3037;51.068;13.780;2024-01-07T15:35:04;-0.50;1.00
6018;DHT22;3037;51.068;13.780;2024-01-07T15:37:34;-0.30;1.00
6018;DHT22;3037;51.068;13.780;2024-01-07T15:39:59;-0.10;1.00
6018;DHT22;3037;51.068;13.780;2024-01-07T15:42:25;-0.10;1.00
6018;DHT22;3037;51.068;13.780;2024-01-07T15:44:51;0.00;1.00
6018;DHT22;3037;51.068;13.780;2024-01-07T15:47:17;0.20;1.00
6018;DHT22;3037;51.068;13.780;2024-01-07T15:49:43;-0.10;1.00
6018;DHT22;3037;51.068;13.780;2024-01-07T15:52:08;0.40;3.80
6018;DHT22;3037;51.068;13.780;2024-01-07T15:54:34;1.20;1.00
6018;DHT22;3037;51.068;13.780;2024-01-07T15:57:00;0.60;1.00
6018;DHT22;3037;51.068;13.780;2024-01-07T15:59:26;0.40;1.00
6018;DHT22;3037;51.068;13.780;2024-01-07T16:01:52;0.30;1.00
6018;DHT22;3037;51.068;13.780;2024-01-07T16:04:18;0.00;1.00
6018;DHT22;3037;51.068;13.780;2024-01-07T16:06:44;0.10;1.00